Nearby METAR Reports

 

KOGD - Ogden, Utah, USA
Distance from station: NNW 6mi, 10km
Updated: Fri, 30-Sep-2022 1:53am MDT
Light rain, Overcast
Light rain, Overcast
 Wind from SSW
Wind: SSW 7 mph , 11 km/h
Temperature: 63°F , 17°C
Dew Point: 50°F , 10°C
Humidity: 64%
Barometer: 30.03 inHg , 1016.9 hPa
Summary: Light rain
Clouds: Overcast
Visibility: 10 miles , 16 km
Cloud details: Few Clouds 6000 ft
Partly cloudy 8000 ft
Overcast 9000 ft
2022/09/30 07:53 KOGD 300753Z AUTO 21006KT 10SM -RA FEW060 SCT080 OVC090 17/10 A3003 RMK AO2 RAB30 TSB0658E13 SLP115 P0001 T01670100
KSLC - Salt Lake City, Utah, USA
Distance from station: S 24mi, 39km
Updated: Fri, 30-Sep-2022 1:54am MDT
Overcast
Overcast
 Wind from NNW
Wind: NNW 10 mph , 17 km/h
Temperature: 63°F , 17°C
Dew Point: 46°F , 8°C
Humidity: 56%
Barometer: 30.03 inHg , 1016.9 hPa
Clouds: Overcast
Visibility: 10 miles , 16 km
Cloud details: Mostly cloudy 9000 ft
Overcast 11000 ft
2022/09/30 07:54 KSLC 300754Z 34009KT 10SM BKN090 OVC110 17/08 A3003 RMK AO2 SLP119 CB DSNT N AND NE T01720078 $
 
KBMC - Brigham City, Utah, USA
Distance from station: N 30mi, 49km
Updated: Fri, 30-Sep-2022 2:30am MDT
Mostly cloudy
Mostly cloudy
 
Temperature: 63°F , 17°C
Dew Point: 34°F , 1°C
Humidity: 34%
Barometer: 30.06 inHg , 1017.9 hPa
Clouds: Mostly cloudy
Visibility: 10 miles , 16 km
Cloud details: Mostly cloudy 11000 ft
2022/09/30 08:30 KBMC 300830Z AUTO 10SM BKN110 17/01 A3006 RMK AO1 T01670014
KU42 - Salt Lake Muni, Utah, USA
Distance from station: S 35mi, 56km
Updated: Fri, 30-Sep-2022 2:35am MDT
Partly cloudy
Partly cloudy
 Wind from WNW
Wind: WNW 10 mph , 17 km/h
Temperature: 61°F , 16°C
Dew Point: 48°F , 9°C
Humidity: 63%
Barometer: 30.09 inHg , 1019 hPa
Clouds: Partly cloudy
Visibility: 10 miles , 16 km
Cloud details: Partly cloudy 11000 ft
2022/09/30 08:35 KU42 300835Z AUTO 30009KT 10SM SCT110 16/09 A3009 RMK AO1 T01550087
 
KTVY - Tooele, Utah, USA
Distance from station: SSW 40mi, 64km
Updated: Fri, 30-Sep-2022 2:35am MDT
Mostly cloudy
Mostly cloudy
 Wind from calm
Wind: Calm
Temperature: 59°F , 15°C
Dew Point: 48°F , 9°C
Humidity: 68%
Barometer: 30.09 inHg , 1019 hPa
Clouds: Mostly cloudy
Visibility: 10 miles , 16 km
Cloud details: Mostly cloudy 12000 ft
2022/09/30 08:35 KTVY 300835Z AUTO 00000KT 10SM BKN120 15/09 A3009 RMK AO2 LTG DSNT NE
KLGU - Logan, Utah, USA
Distance from station: N 46mi, 75km
Updated: Fri, 30-Sep-2022 2:51am MDT
Mostly cloudy
Mostly cloudy
 Wind from SSW
Wind: SSW 8 mph , 13 km/h
Temperature: 55°F , 13°C
Dew Point: 45°F , 7°C
Humidity: 67%
Barometer: 30.06 inHg , 1017.9 hPa
Clouds: Mostly cloudy
Visibility: 10 miles , 16 km
Cloud details: Partly cloudy 10000 ft
Mostly cloudy 12000 ft
2022/09/30 08:51 KLGU 300851Z AUTO 20007KT 10SM SCT100 BKN120 13/07 A3006 RMK AO2 RAE0757 SLP136 P0000 60001 T01330072 50008
 
KEVW - Evanston, Wyoming, USA
Distance from station: ENE 50mi, 80km
Updated: Fri, 30-Sep-2022 2:21am MDT
Light rain, Overcast
Light rain, Overcast
 Wind from N
Wind: N 16 mph , 26 km/h
Temperature: 46°F , 8°C
Wind Chill: 39°F , 4°C
Dew Point: 43°F , 6°C
Humidity: 87%
Barometer: 30.17 inHg , 1021.7 hPa
Summary: Light rain
Clouds: Overcast
Visibility: 10 miles , 16 km
Cloud details: Partly cloudy 3600 ft
Overcast 4600 ft
2022/09/30 08:21 KEVW 300821Z AUTO 35014KT 10SM -RA SCT036 OVC046 08/06 A3017 RMK AO2 PK WND 32032/0759 LTG DSNT NE RAB05 TSB02E17 P0000 T00780056